Weather observations for the past three days for
Harrison, Boone County Airport
Metric (Imperial)
Date Time (cdt) Wind (kph) Vis. (km) Weather Sky Cond. Temperature (ºC) Relative Humidity Wind Chill (°C) Heat Index (°C) Pressure Precipitation (cm)
Air Dwpt 6 hour altimeter (cm) sea level (mb) 1 hr 3 hr 6 hr
Max. Min.
01 20:53 S 9 16.09 Fair CLR 28.9 18.9 55% 30 76.28 1014.9
01 19:53 S 7 16.09 Fair CLR 31.1 18.3 46% 32 76.23 1014.5
01 18:53 SE 17 16.09 Fair CLR 33.9 17.2 37.2 33.9 37% 35 76.25 1014.8
01 17:53 SE 9 16.09 A Few Clouds FEW075 35.6 16.7 32% 36 76.28 1014.8
01 16:53 SE 9 16.09 Fair CLR 36.1 17.2 33% 37 76.25 1014.7
01 15:53 SE 13 16.09 Fair CLR 36.7 17.8 33% 38 76.3 1015.2
01 14:53 S 9 16.09 A Few Clouds FEW095 36.7 17.8 33% 38 76.33 1015.8
01 13:53 S 11 16.09 Fair CLR 36.1 17.8 34% 37 76.4 1016.5
01 12:53 Vrbl 11 16.09 Mostly Cloudy SCT060 BKN075 36.1 20 36.1 22.8 39% 39 76.45 1017.3
01 11:53 Calm 16.09 Mostly Cloudy BKN080 34.4 20 43% 37 76.5 1018.1
01 10:53 Calm 16.09 Fair CLR 32.2 19.4 47% 34 76.53 1018.2
01 09:53 SE 7 16.09 A Few Clouds FEW085 30.6 20.6 55% 33 76.53 1018.4
01 08:53 SE 7 16.09 A Few Clouds FEW085 27.8 20 63% 29 76.53 1018.3
01 07:53 SE 6 16.09 A Few Clouds FEW090 25 19.4 71% 26 76.5 1018.2
01 06:53 SE 6 16.09 Mostly Cloudy BKN090 23.3 18.9 26.7 22.8 76% 76.48 1017.6
01 05:53 SE 6 16.09 Fair CLR 22.8 18.9 79% 76.43 1017.0
01 04:53 Calm 16.09 Fair CLR 23.9 18.9 74% 25 76.43 1016.8
01 03:53 Calm 16.09 Fair CLR 23.9 18.9 74% 25 76.4 1016.5
01 02:53 SE 6 16.09 Fair CLR 24.4 18.3 69% 25 76.38 1016.3
01 00:53 SE 7 16.09 Fair CLR 24.4 17.8 33.3 24.4 67% 25 76.4 1016.5
31 23:53 SE 13 16.09 Fair CLR 25.6 17.8 62% 27 76.38 1016.4
31 22:53 S 9 16.09 Fair CLR 26.1 17.2 58% 27 76.38 1016.2
31 21:53 SE 7 16.09 Fair CLR 26.7 16.7 54% 27 76.38 1016.3
31 20:53 S 7 16.09 Fair CLR 28.3 17.2 51% 29 76.33 1015.6
31 19:53 S 11 16.09 Fair CLR 30.6 17.2 45% 31 76.28 1015.2
31 18:53 SE 19 16.09 Fair CLR 33.3 17.2 36.7 33.3 38% 34 76.25 1014.9
31 17:53 SE 15 16.09 Fair CLR 35 16.1 32% 35 76.28 1014.8
31 16:53 SE 13 16.09 Fair CLR 36.1 16.1 30% 36 76.28 1015.0
31 15:53 Calm 16.09 Fair CLR 36.1 15.6 29% 36 76.3 1015.2
31 14:53 S 13 16.09 A Few Clouds FEW080 36.1 16.1 30% 36 76.35 1015.9
31 13:53 Calm 16.09 Mostly Cloudy BKN080 BKN095 35 17.2 35% 36 76.4 1016.6
31 12:53 Calm 16.09 Overcast BKN070 OVC085 34.4 17.2 35.6 22.2 36% 35 76.45 1017.3
31 11:53 S 13 16.09 Fair CLR 35 18.9 39% 37 76.48 1017.6
31 10:53 S 11 16.09 A Few Clouds FEW085 33.3 19.4 44% 35 76.5 1018.1
31 09:53 S 11 16.09 Fair CLR 31.1 19.4 50% 33 76.48 1017.9
31 08:53 SE 7 16.09 Fair CLR 27.8 18.3 56% 29 76.48 1017.8
31 07:53 E 7 16.09 Fair CLR 24.4 17.8 67% 25 76.45 1017.4
31 06:53 Calm 16.09 Fair CLR 22.2 17.2 25.6 22.2 73% 76.38 1016.3
31 05:53 SE 6 16.09 Fair CLR 23.9 17.2 66% 25 76.35 1015.9
31 04:53 SE 7 16.09 Fair CLR 24.4 16.7 62% 25 76.33 1015.5
31 03:53 S 11 16.09 Fair CLR 24.4 16.1 60% 26 76.3 1015.4
31 02:53 SE 11 16.09 Fair CLR 25.6 15.6 54% 26 76.3 1015.2
31 01:53 SE 9 16.09 Fair CLR 25 16.1 58% 26 76.33 1015.4
30 23:53 SE 13 16.09 Fair CLR 24.4 16.7 62% 25 76.33 1015.5
30 22:53 S 11 16.09 Fair CLR 24.4 16.7 62% 25 76.3 1015.3
30 21:53 SE 13 16.09 Fair CLR 26.7 17.2 56% 27 76.3 1015.2
30 20:53 SE 11 16.09 Fair CLR 26.7 17.8 58% 28 76.25 1015.0
30 19:53 S 13 16.09 Fair CLR 30 17.2 46% 30 76.23 1014.5
30 18:53 S 11 16.09 Fair CLR 32.2 16.7 35.6 32.2 39% 32 76.23 1014.5
30 17:53 S 15 16.09 Fair CLR 33.9 16.1 34% 34 76.23 1014.5
30 16:53 S 15 16.09 Fair CLR 35 16.7 34% 35 76.23 1014.4
30 15:53 SE 17 G 30 16.09 A Few Clouds FEW080 35.6 16.1 31% 36 76.25 1014.7
30 14:53 E 9 16.09 Fair CLR 35.6 16.7 32% 36 76.28 1015.1
30 13:53 SE 13 16.09 Fair CLR 34.4 17.2 36% 35 76.33 1015.6
30 12:53 SE 17 16.09 Fair CLR 33.9 16.7 33.9 20 36% 34 76.35 1016.2
30 11:53 S 11 16.09 Fair CLR 33.3 17.2 38% 34 76.4 1016.8
30 10:53 S 17 16.09 Fair CLR 31.7 17.2 42% 32 76.43 1017.1
30 09:53 S 17 16.09 Fair CLR 30 16.7 45% 30 76.4 1016.9
30 08:53 SE 11 16.09 Fair CLR 26.1 16.7 56% 27 76.4 1016.9
30 07:53 SE 9 16.09 Fair CLR 22.2 15.6 66% 76.43 1017.3
30 06:53 SE 9 16.09 Fair CLR 20 14.4 22.8 19.4 70% 76.38 1016.7
30 05:53 SE 9 16.09 Fair CLR 19.4 15 76% 76.35 1016.3
30 04:53 SE 6 16.09 Fair CLR 20 15 73% 76.38 1016.4
30 03:53 SE 6 16.09 Fair CLR 20.6 15 70% 76.35 1016.3
30 02:53 SE 13 16.09 Fair CLR 21.7 15.6 68% 76.35 1016.2
30 01:53 SE 15 16.09 Fair CLR 22.8 15.6 64% 76.38 1016.4
30 00:53 SE 15 16.09 Fair CLR 22.8 15.6 31.1 22.2 64% 76.38 1016.4
29 23:53 S 9 16.09 Fair CLR 22.8 16.1 66% 76.38 1016.6
29 22:53 SE 9 16.09 Fair CLR 23.3 16.7 67% 76.38 1016.7
29 21:53 S 11 16.09 Fair CLR 25.6 17.2 60% 27 76.38 1016.4
Date Time (cdt) Wind (kph) Vis. (km) Weather Sky Cond. Air Dwpt Max. Min. Relative Humidity Wind Chill (°C) Heat Index (°C) altimeter (cm) sea level (mb) 1 hr 3 hr 6 hr
6 hour
Temperature (ºC) Pressure Precipitation (cm)